Detall de PIREP

Printer-friendly versionPDF version

[2011/05/14 22:09:00]
Flight IATA:CT1001
Pilot Number:026
Company ICAO:CAT
Aircraft Type:F50/A
PAX:50
Aircraft Registration:PAOB
Departing Airport: LEIB
Destination Airport: LEPA
Alternate Airport:LEIB
Online: VATSIM
Route:MJV
Flight Level:F100
No Slew and time accel
No pause
Crash detect
Detect pilot in Cockpit between each 30 and 45 minutes
22:09 Zero fuel Weight: 39183 Lbs, Fuel Weight: 2248 Lbs
22:09 VATSIM:LEIB 142200Z 02008KT CAVOK 21/17 Q1019 NOSIG
22:09 VATSIM:LEPA 142200Z 05017KT 9999 FEW018 20/16 Q1019 NOSIG
22:09 VOICE CATALONIAN / MEDITERRANEAN ODYSSEY
22:16 Parking Brakes off
22:23 Take-off
22:23 Take off Weight: 41326 Lbs
22:23 Wind: 022º @ 008 Knots Heading: 060º
22:23 POS N38º 52´ 24´´ E001º 22´ 29´´
22:23 Flaps:2 at 124 Knots
22:23 Gear Up: 124 Knots
22:23 Flaps:1 at 154 Knots
22:24 Flaps:0 at 141 Knots
22:29 TOC
22:29 Fuel Weight: 1853 Lb
22:38 Wind:042º@032 Knots Heading: 045º Ground Speed: 223 Knots Altitude 10278 ft
22:41 TOD
22:41 Fuel Weight: 1457 Lb
22:53 Wind:054º@014 Knots Heading: 260º Ground Speed: 219 Knots Altitude 2155 ft
22:56 Gear Down: 160 Knots
22:57 Flaps:1 at 141 Knots
22:58 Flaps:2 at 132 Knots
22:58 Flaps:3 at 118 Knots
22:59 TouchDown:Rate -107 ft/min Speed: 91 Knots
22:59 Flaps:2 at 89 Knots
23:00 Flaps:1 at 111 Knots
23:00 Flaps:2 at 112 Knots
23:00 Gear Up: 115 Knots
23:00 Flaps:1 at 107 Knots
23:01 Flaps:0 at 138 Knots
23:08 Wind:049º@022 Knots Heading: 197º Ground Speed: 175 Knots Altitude 2788 ft
23:14 Gear Down: 139 Knots
23:14 Flaps:1 at 119 Knots
23:17 Flaps:2 at 124 Knots
23:18 Flaps:3 at 112 Knots
23:18 Flaps:4 at 104 Knots
23:19 TouchDown:Rate -140 ft/min Speed: 92 Knots
23:19 VATSIM:LEPA 142300Z 05016G26KT 9999 FEW018 SCT060 19/14 Q1019 NOSIG
23:19 Land
23:19 Wind:035º@016 Knots
23:19 Heading: 060º
23:19 Flight Duration: 00:56
23:19 Landing Weight: 39933 Lbs
23:19 POS N39º 33´ 15´´ E002º 43´ 33´´
23:22 Parking brakes on
23:22 Block to Block Duration: 01:06
23:22 Final Fuel: 712 Lbls
23:22 Spent Fuel: 1536 Lbls
23:22 Flight Length: 166 NM
23:22 TOD Land Length: 102 NM

Exportar CSV

Powered by Drupal - Modified by Danger4k